createdAt,value
2023-04-22T00:00:15.982Z,7.38
2023-04-22T00:02:43.933Z,7.31
2023-04-22T00:05:16.434Z,7.23
2023-04-22T00:07:45.738Z,7.09
2023-04-22T00:10:12.824Z,7.01
2023-04-22T00:12:40.445Z,7.02
2023-04-22T00:15:08.211Z,7.03
2023-04-22T00:17:35.235Z,6.94
2023-04-22T00:20:02.281Z,6.94
2023-04-22T00:22:33.057Z,6.91
2023-04-22T00:25:00.253Z,6.86
2023-04-22T00:27:27.288Z,6.82
2023-04-22T00:29:54.362Z,6.83
2023-04-22T00:32:22.765Z,6.81
2023-04-22T00:34:50.674Z,6.75
2023-04-22T00:37:23.861Z,6.75
2023-04-22T00:39:53.937Z,6.78
2023-04-22T00:42:21.937Z,6.76
2023-04-22T00:44:50.475Z,6.71
2023-04-22T00:47:17.843Z,6.69
2023-04-22T00:49:48.403Z,6.64
2023-04-22T00:52:15.696Z,6.55
2023-04-22T00:54:43.573Z,6.61
2023-04-22T00:57:10.792Z,6.46
2023-04-22T00:59:38.150Z,6.50
2023-04-22T01:02:05.854Z,6.55
2023-04-22T01:04:33.154Z,6.53
2023-04-22T01:07:02.141Z,6.46
2023-04-22T01:09:29.234Z,6.43
2023-04-22T01:11:56.869Z,6.38
2023-04-22T01:14:25.795Z,6.40
2023-04-22T01:16:56.083Z,6.40
2023-04-22T01:19:23.927Z,6.34
2023-04-22T01:21:51.787Z,6.23
2023-04-22T01:24:24.177Z,6.26
2023-04-22T01:26:51.494Z,6.21
2023-04-22T01:29:20.960Z,6.16
2023-04-22T01:31:48.001Z,6.17
2023-04-22T01:34:15.255Z,6.19
2023-04-22T01:36:42.421Z,6.20
2023-04-22T01:39:09.333Z,6.20
2023-04-22T01:41:36.427Z,6.18
2023-04-22T01:44:03.914Z,6.07
2023-04-22T01:46:31.222Z,6.00
2023-04-22T01:48:58.289Z,5.97
2023-04-22T01:51:25.420Z,5.96
2023-04-22T01:53:52.438Z,5.94
2023-04-22T01:56:19.462Z,5.89
2023-04-22T01:58:49.542Z,5.83
2023-04-22T02:01:16.550Z,5.84
2023-04-22T02:03:43.787Z,5.90
2023-04-22T02:06:12.963Z,6.01
2023-04-22T02:08:40.979Z,6.12
2023-04-22T02:11:10.655Z,6.06
2023-04-22T02:13:40.711Z,6.00
2023-04-22T02:16:09.940Z,5.94
2023-04-22T02:18:37.269Z,5.89
2023-04-22T02:21:04.395Z,5.86
2023-04-22T02:23:31.487Z,5.81
2023-04-22T02:25:58.636Z,5.80
2023-04-22T02:28:25.918Z,5.76
2023-04-22T02:30:53.683Z,5.72
2023-04-22T02:33:23.494Z,5.57
2023-04-22T02:35:52.948Z,5.60
2023-04-22T02:38:20.419Z,5.68
2023-04-22T02:40:49.298Z,5.68
2023-04-22T02:43:25.604Z,5.81
2023-04-22T02:45:55.552Z,5.85
2023-04-22T02:48:22.980Z,5.96
2023-04-22T02:50:49.969Z,6.05
2023-04-22T02:53:17.026Z,6.12
2023-04-22T02:55:44.354Z,6.16
2023-04-22T02:58:11.635Z,6.21
2023-04-22T03:00:41.573Z,6.25
2023-04-22T03:03:08.954Z,6.28
2023-04-22T03:05:36.059Z,6.35
2023-04-22T03:08:03.220Z,6.41
2023-04-22T03:10:30.906Z,6.49
2023-04-22T03:12:58.256Z,6.54
2023-04-22T03:15:27.261Z,6.59
2023-04-22T03:17:56.033Z,6.68
2023-04-22T03:20:24.075Z,6.80
2023-04-22T03:22:53.223Z,6.91
2023-04-22T03:25:21.202Z,7.00
2023-04-22T03:27:52.826Z,7.13
2023-04-22T03:30:19.942Z,7.28
2023-04-22T03:32:49.994Z,7.35
2023-04-22T03:35:26.516Z,7.49
2023-04-22T03:37:54.888Z,7.62
2023-04-22T03:40:29.553Z,7.65
2023-04-22T03:43:03.496Z,7.76
2023-04-22T03:45:33.089Z,7.78
2023-04-22T03:48:23.348Z,7.93
2023-04-22T03:50:52.860Z,8.00
2023-04-22T03:53:20.003Z,8.11
2023-04-22T03:55:47.307Z,8.19
2023-04-22T03:58:15.756Z,8.33
2023-04-22T04:00:43.315Z,8.36
2023-04-22T04:03:16.199Z,8.42
2023-04-22T04:05:46.294Z,8.48
2023-04-22T04:08:13.492Z,8.57
2023-04-22T04:10:42.022Z,8.61
2023-04-22T04:13:09.380Z,8.71
2023-04-22T04:15:46.366Z,8.81
2023-04-22T04:18:16.065Z,8.89
2023-04-22T04:20:44.081Z,8.96
2023-04-22T04:23:11.052Z,9.06
2023-04-22T04:25:39.139Z,9.13
2023-04-22T04:28:11.407Z,9.18
2023-04-22T04:30:57.038Z,9.23
2023-04-22T04:33:24.245Z,9.33
2023-04-22T04:35:51.514Z,9.43
2023-04-22T04:38:48.024Z,9.55
2023-04-22T04:41:28.527Z,9.59
2023-04-22T04:43:56.680Z,9.59
2023-04-22T04:46:29.940Z,9.74
2023-04-22T04:49:00.675Z,9.86
2023-04-22T04:51:38.927Z,10.05
2023-04-22T04:54:06.110Z,10.22
2023-04-22T04:56:37.488Z,10.27
2023-04-22T04:59:05.945Z,10.33
2023-04-22T05:01:37.696Z,10.45
2023-04-22T05:04:12.614Z,10.45
2023-04-22T05:06:44.472Z,10.52
2023-04-22T05:09:13.251Z,10.74
2023-04-22T05:11:40.927Z,10.81
2023-04-22T05:14:35.832Z,10.87
2023-04-22T05:17:03.249Z,10.95
2023-04-22T05:19:33.391Z,11.02
2023-04-22T05:22:02.434Z,11.05
2023-04-22T05:24:30.459Z,11.09
2023-04-22T05:26:58.650Z,11.11
2023-04-22T05:33:59.889Z,11.25
2023-04-22T05:36:03.518Z,11.34
2023-04-22T05:38:31.287Z,11.38
2023-04-22T05:41:00.446Z,11.70
2023-04-22T05:43:30.969Z,11.70
2023-04-22T05:46:08.256Z,11.63
2023-04-22T05:48:38.455Z,11.67
2023-04-22T05:51:10.301Z,11.79
2023-04-22T05:53:37.750Z,11.92
2023-04-22T05:56:06.128Z,12.13
2023-04-22T05:58:37.570Z,12.20
2023-04-22T06:01:17.510Z,12.24
2023-04-22T06:04:17.232Z,12.24
2023-04-22T06:06:45.027Z,12.26
2023-04-22T06:09:15.147Z,12.30
2023-04-22T06:11:44.923Z,12.34
2023-04-22T06:14:15.432Z,12.49
2023-04-22T06:16:44.367Z,12.66
2023-04-22T06:19:11.557Z,12.72
2023-04-22T06:21:43.578Z,12.74
2023-04-22T06:24:11.032Z,12.85
2023-04-22T06:26:38.483Z,12.82
2023-04-22T06:29:08.390Z,12.86
2023-04-22T06:31:42.744Z,13.04
2023-04-22T06:34:34.870Z,13.33
2023-04-22T06:37:22.936Z,13.34
2023-04-22T06:39:50.640Z,13.40
2023-04-22T06:42:55.864Z,13.33
2023-04-22T06:45:42.962Z,13.27
2023-04-22T06:48:27.858Z,13.35
2023-04-22T06:51:19.858Z,13.44
2023-04-22T06:53:47.041Z,13.54
2023-04-22T06:56:36.311Z,13.68
2023-04-22T06:59:03.445Z,13.70
2023-04-22T07:01:30.844Z,13.68
2023-04-22T07:03:58.271Z,13.58
2023-04-22T07:06:25.753Z,13.51
2023-04-22T07:08:53.848Z,13.79
2023-04-22T07:11:24.705Z,13.69
2023-04-22T07:13:58.884Z,13.52
2023-04-22T07:16:26.997Z,13.50
2023-04-22T07:18:54.215Z,13.86
2023-04-22T07:21:21.334Z,13.92
2023-04-22T07:23:48.794Z,13.67
2023-04-22T07:26:21.886Z,13.88
2023-04-22T07:28:53.865Z,14.02
2023-04-22T07:31:23.585Z,14.50
2023-04-22T07:33:50.760Z,14.98
2023-04-22T07:36:19.590Z,15.48
2023-04-22T07:38:46.751Z,15.93
2023-04-22T07:41:14.180Z,16.01
2023-04-22T07:43:46.472Z,15.39
2023-04-22T07:46:16.121Z,15.08
2023-04-22T07:48:45.257Z,14.39
2023-04-22T07:51:15.274Z,14.03
2023-04-22T07:53:42.287Z,13.83
2023-04-22T07:56:09.912Z,13.51
2023-04-22T07:58:37.052Z,13.30
2023-04-22T08:01:07.170Z,13.24
2023-04-22T08:03:36.483Z,13.56
2023-04-22T08:06:11.128Z,13.58
2023-04-22T08:08:40.768Z,13.76
2023-04-22T08:11:08.836Z,14.02
2023-04-22T08:13:54.618Z,14.17
2023-04-22T08:16:29.200Z,14.43
2023-04-22T08:18:57.648Z,14.61
2023-04-22T08:21:28.337Z,14.71
2023-04-22T08:23:55.546Z,14.61
2023-04-22T08:26:23.008Z,14.61
2023-04-22T08:28:50.121Z,14.90
2023-04-22T08:31:18.259Z,14.72
2023-04-22T08:33:45.368Z,14.73
2023-04-22T08:36:13.034Z,14.87
2023-04-22T08:38:43.364Z,16.66
2023-04-22T08:41:13.049Z,18.03
2023-04-22T08:43:40.285Z,17.50
2023-04-22T08:46:09.666Z,17.23
2023-04-22T08:48:37.457Z,16.62
2023-04-22T08:51:08.650Z,16.05
2023-04-22T08:53:35.956Z,15.96
2023-04-22T08:56:02.957Z,15.73
2023-04-22T08:58:37.259Z,15.48
2023-04-22T09:01:04.495Z,15.91
2023-04-22T09:03:34.210Z,15.98
2023-04-22T09:06:03.919Z,15.74
2023-04-22T09:08:35.326Z,15.11
2023-04-22T09:11:05.145Z,15.01
2023-04-22T09:13:32.459Z,15.33
2023-04-22T09:16:03.043Z,15.55
2023-04-22T09:18:30.186Z,15.67
2023-04-22T09:20:57.513Z,15.57
2023-04-22T09:23:25.048Z,15.51
2023-04-22T09:25:52.064Z,15.46
2023-04-22T09:28:19.700Z,15.64
2023-04-22T09:31:13.466Z,16.80
2023-04-22T09:34:00.898Z,17.94
2023-04-22T09:36:29.614Z,18.99
2023-04-22T09:39:00.569Z,20.04
2023-04-22T09:41:32.633Z,20.77
2023-04-22T09:44:26.967Z,20.33
2023-04-22T09:46:54.516Z,19.63
2023-04-22T09:49:22.133Z,19.36
2023-04-22T09:51:57.440Z,18.46
2023-04-22T09:54:24.493Z,18.90
2023-04-22T09:56:57.295Z,17.92
2023-04-22T09:59:45.974Z,17.15
2023-04-22T10:02:14.359Z,16.47
2023-04-22T10:04:42.901Z,16.34
2023-04-22T10:07:09.982Z,15.98
2023-04-22T10:09:39.756Z,15.76
2023-04-22T10:12:07.703Z,15.65
2023-04-22T10:14:34.844Z,15.21
2023-04-22T10:17:04.892Z,15.69
2023-04-22T10:19:33.098Z,18.15
2023-04-22T10:22:04.019Z,19.94
2023-04-22T10:24:35.688Z,21.34
2023-04-22T10:27:08.678Z,22.56
2023-04-22T10:29:43.641Z,22.87
2023-04-22T10:32:11.929Z,21.35
2023-04-22T10:34:57.627Z,20.06
2023-04-22T10:37:44.373Z,19.26
2023-04-22T10:40:16.708Z,19.70
2023-04-22T10:42:50.526Z,18.94
2023-04-22T10:45:17.907Z,18.10
2023-04-22T10:47:45.196Z,17.52
2023-04-22T10:50:31.537Z,17.10
2023-04-22T10:53:03.307Z,16.92
2023-04-22T10:55:52.730Z,18.92
2023-04-22T10:58:21.517Z,19.06
2023-04-22T11:01:00.447Z,21.02
2023-04-22T11:03:30.370Z,21.68
2023-04-22T11:06:22.329Z,20.78
2023-04-22T11:08:50.832Z,19.68
2023-04-22T11:11:19.004Z,18.66
2023-04-22T11:13:50.691Z,19.78
2023-04-22T11:16:22.704Z,21.74
2023-04-22T11:18:53.563Z,23.12
2023-04-22T11:21:23.018Z,23.23
2023-04-22T11:23:53.734Z,21.75
2023-04-22T11:26:35.348Z,23.21
2023-04-22T11:29:02.876Z,24.41
2023-04-22T11:31:29.926Z,25.41
2023-04-22T11:34:06.326Z,24.63
2023-04-22T11:36:33.506Z,25.08
2023-04-22T11:39:00.587Z,23.33
2023-04-22T11:41:33.534Z,21.81
2023-04-22T11:44:02.521Z,20.76
2023-04-22T11:46:39.779Z,20.17
2023-04-22T11:49:16.448Z,19.53
2023-04-22T11:51:54.456Z,19.33
2023-04-22T11:54:36.076Z,21.03
2023-04-22T11:57:14.280Z,22.11
2023-04-22T11:59:42.541Z,23.93
2023-04-22T12:02:10.358Z,25.30
2023-04-22T12:04:41.702Z,26.01
2023-04-22T12:07:08.814Z,26.10
2023-04-22T12:09:35.923Z,24.73
2023-04-22T12:12:08.894Z,25.64
2023-04-22T12:14:36.153Z,22.92
2023-04-22T12:17:09.318Z,20.94
2023-04-22T12:19:37.852Z,23.11
2023-04-22T12:22:05.234Z,23.88
2023-04-22T12:24:32.289Z,23.75
2023-04-22T12:26:59.436Z,24.16
2023-04-22T12:29:32.245Z,24.95
2023-04-22T12:32:00.151Z,26.12
2023-04-22T12:34:32.412Z,27.17
2023-04-22T12:37:00.298Z,27.56
2023-04-22T12:39:27.400Z,28.48
2023-04-22T12:41:58.030Z,27.13
2023-04-22T12:44:25.304Z,25.63
2023-04-22T12:46:55.942Z,26.78
2023-04-22T12:49:24.292Z,27.15
2023-04-22T12:52:10.193Z,28.34
2023-04-22T12:54:38.122Z,28.49
2023-04-22T12:57:05.223Z,28.27
2023-04-22T12:59:32.357Z,28.36
2023-04-22T13:01:59.453Z,28.01
2023-04-22T13:04:26.654Z,28.20
2023-04-22T13:06:56.513Z,28.35
2023-04-22T13:09:27.254Z,27.75
2023-04-22T13:12:13.207Z,26.37
2023-04-22T13:14:44.542Z,24.04
2023-04-22T13:17:12.679Z,24.57
2023-04-22T13:19:40.162Z,25.27
2023-04-22T13:22:07.449Z,23.34
2023-04-22T13:24:34.509Z,22.63
2023-04-22T13:27:06.963Z,22.28
2023-04-22T13:29:40.811Z,24.63
2023-04-22T13:32:09.597Z,27.07
2023-04-22T13:34:36.844Z,27.56
2023-04-22T13:37:07.949Z,25.90
2023-04-22T13:39:35.040Z,23.14
2023-04-22T13:42:05.113Z,21.49
2023-04-22T13:44:32.506Z,20.21
2023-04-22T13:47:01.390Z,19.17
2023-04-22T13:49:32.888Z,18.76
2023-04-22T13:52:05.313Z,20.19
2023-04-22T13:54:41.467Z,23.03
2023-04-22T13:57:09.912Z,24.99
2023-04-22T13:59:37.219Z,26.17
2023-04-22T14:02:04.372Z,26.82
2023-04-22T14:04:31.738Z,27.66
2023-04-22T14:07:18.628Z,28.30
2023-04-22T14:09:45.893Z,27.98
2023-04-22T14:12:13.012Z,27.94
2023-04-22T14:14:40.137Z,27.86
2023-04-22T14:17:07.383Z,27.93
2023-04-22T14:19:36.543Z,28.12
2023-04-22T14:22:03.520Z,28.28
2023-04-22T14:24:49.237Z,28.26
2023-04-22T14:27:18.906Z,28.74
2023-04-22T14:30:06.528Z,29.00
2023-04-22T14:32:33.640Z,28.80
2023-04-22T14:35:00.675Z,29.06
2023-04-22T14:37:27.900Z,29.08
2023-04-22T14:39:55.064Z,29.23
2023-04-22T14:42:22.181Z,28.45
2023-04-22T14:44:52.192Z,26.60
2023-04-22T14:47:20.560Z,23.90
2023-04-22T14:49:48.791Z,22.78
2023-04-22T14:52:16.028Z,24.10
2023-04-22T14:54:44.037Z,25.72
2023-04-22T14:57:11.325Z,26.68
2023-04-22T14:59:38.586Z,27.52
2023-04-22T15:02:06.425Z,28.38
2023-04-22T15:04:39.492Z,28.42
2023-04-22T15:07:09.051Z,28.30
2023-04-22T15:09:36.242Z,27.97
2023-04-22T15:12:06.245Z,27.25
2023-04-22T15:14:35.706Z,26.97
2023-04-22T15:17:03.292Z,26.40
2023-04-22T15:19:30.478Z,25.91
2023-04-22T15:21:58.714Z,24.80
2023-04-22T15:24:38.465Z,22.40
2023-04-22T15:27:06.156Z,20.54
2023-04-22T15:29:33.282Z,19.42
2023-04-22T15:32:02.284Z,19.12
2023-04-22T15:34:29.737Z,18.55
2023-04-22T15:36:56.795Z,18.18
2023-04-22T15:39:24.799Z,17.94
2023-04-22T15:41:52.068Z,17.75
2023-04-22T15:44:19.381Z,17.60
2023-04-22T15:46:46.881Z,17.32
2023-04-22T15:49:16.835Z,17.18
2023-04-22T15:51:43.865Z,17.17
2023-04-22T15:54:14.980Z,17.20
2023-04-22T15:56:42.078Z,17.29
2023-04-22T15:59:09.316Z,16.98
2023-04-22T16:01:38.243Z,16.69
2023-04-22T16:04:07.408Z,16.46
2023-04-22T16:06:53.532Z,16.23
2023-04-22T16:09:20.595Z,16.02
2023-04-22T16:11:47.627Z,15.94
2023-04-22T16:14:15.759Z,15.84
2023-04-22T16:16:43.619Z,15.70
2023-04-22T16:19:16.957Z,15.53
2023-04-22T16:21:44.566Z,15.36
2023-04-22T16:24:11.531Z,15.03
2023-04-22T16:26:58.603Z,14.92
2023-04-22T16:29:27.773Z,14.72
2023-04-22T16:31:54.937Z,14.57
2023-04-22T16:34:41.482Z,14.44
2023-04-22T16:37:08.877Z,14.41
2023-04-22T16:39:36.049Z,14.31
2023-04-22T16:42:03.247Z,14.16
2023-04-22T16:44:32.766Z,14.04
2023-04-22T16:47:04.220Z,13.84
2023-04-22T16:49:31.398Z,13.68
2023-04-22T16:52:01.536Z,13.64
2023-04-22T16:54:29.732Z,13.53
2023-04-22T16:56:57.666Z,13.47
2023-04-22T16:59:24.848Z,13.39
2023-04-22T17:01:52.413Z,13.37
2023-04-22T17:04:24.026Z,13.23
2023-04-22T17:06:51.335Z,13.19
2023-04-22T17:09:19.820Z,13.27
2023-04-22T17:11:47.431Z,13.12
2023-04-22T17:14:14.898Z,13.22
2023-04-22T17:16:44.373Z,13.11
2023-04-22T17:19:11.630Z,13.17
2023-04-22T17:21:40.870Z,13.01
2023-04-22T17:24:08.512Z,12.86
2023-04-22T17:26:37.248Z,12.68
2023-04-22T17:29:08.221Z,12.70
2023-04-22T17:31:35.413Z,12.54
2023-04-22T17:34:04.602Z,12.66
2023-04-22T17:36:31.972Z,12.52
2023-04-22T17:38:59.326Z,12.55
2023-04-22T17:41:28.214Z,12.46
2023-04-22T17:43:55.981Z,12.42
2023-04-22T17:46:24.017Z,12.31
2023-04-22T17:49:15.265Z,12.26
2023-04-22T17:51:43.233Z,12.08
2023-04-22T17:54:10.382Z,11.97
2023-04-22T17:56:38.526Z,12.02
2023-04-22T17:59:06.326Z,12.07
2023-04-22T18:01:33.572Z,11.82
2023-04-22T18:04:00.820Z,11.71
2023-04-22T18:06:31.139Z,11.71
2023-04-22T18:08:59.598Z,11.64
2023-04-22T18:11:28.038Z,11.56
2023-04-22T18:13:58.218Z,11.44
2023-04-22T18:16:25.854Z,11.38
2023-04-22T18:19:17.720Z,11.25
2023-04-22T18:21:56.921Z,11.10
2023-04-22T18:24:30.053Z,11.07
2023-04-22T18:26:57.183Z,10.94
2023-04-22T18:29:24.347Z,10.88
2023-04-22T18:31:52.246Z,10.73
2023-04-22T18:34:19.772Z,10.82
2023-04-22T18:36:50.159Z,10.78
2023-04-22T18:39:21.734Z,10.69
2023-04-22T18:41:49.110Z,10.64
2023-04-22T18:44:16.447Z,10.56
2023-04-22T18:46:43.620Z,10.56
2023-04-22T18:49:10.779Z,10.52
2023-04-22T18:51:39.868Z,10.34
2023-04-22T18:54:08.802Z,10.33
2023-04-22T18:56:35.883Z,10.18
2023-04-22T18:59:03.417Z,10.14
2023-04-22T19:01:30.861Z,10.09
2023-04-22T19:04:01.788Z,10.06
2023-04-22T19:06:29.621Z,9.98
2023-04-22T19:08:59.076Z,9.80
2023-04-22T19:11:26.293Z,9.82
2023-04-22T19:13:53.793Z,9.74
2023-04-22T19:16:25.643Z,9.75
2023-04-22T19:18:54.352Z,9.68
2023-04-22T19:21:21.564Z,9.53
2023-04-22T19:23:53.119Z,9.52
2023-04-22T19:26:21.280Z,9.47
2023-04-22T19:28:48.978Z,9.31
2023-04-22T19:31:22.131Z,9.30
2023-04-22T19:33:49.275Z,9.19
2023-04-22T19:36:16.726Z,9.16
2023-04-22T19:38:43.978Z,9.10
2023-04-22T19:41:11.836Z,9.05
2023-04-22T19:43:40.528Z,9.07
2023-04-22T19:46:10.597Z,9.00
2023-04-22T19:48:39.419Z,8.97
2023-04-22T19:51:06.810Z,8.92
2023-04-22T19:53:34.207Z,8.89
2023-04-22T19:56:02.011Z,8.80
2023-04-22T19:58:29.964Z,8.72
2023-04-22T20:00:57.565Z,8.67
2023-04-22T20:03:25.083Z,8.61
2023-04-22T20:05:52.206Z,8.64
2023-04-22T20:08:20.691Z,8.60
2023-04-22T20:10:49.606Z,8.58
2023-04-22T20:13:17.391Z,8.44
2023-04-22T20:15:48.629Z,8.45
2023-04-22T20:18:16.150Z,8.43
2023-04-22T20:20:50.155Z,8.40
2023-04-22T20:23:18.076Z,8.52
2023-04-22T20:25:45.989Z,8.46
2023-04-22T20:28:13.613Z,8.34
2023-04-22T20:30:41.883Z,8.22
2023-04-22T20:33:17.202Z,8.19
2023-04-22T20:35:47.239Z,8.14
2023-04-22T20:38:19.572Z,8.11
2023-04-22T20:40:47.103Z,8.09
2023-04-22T20:43:14.916Z,8.03
2023-04-22T20:45:42.088Z,7.97
2023-04-22T20:48:09.248Z,7.98
2023-04-22T20:50:39.188Z,7.97
2023-04-22T20:53:06.944Z,7.92
2023-04-22T20:55:36.335Z,7.89
2023-04-22T20:58:04.521Z,7.87
2023-04-22T21:00:32.828Z,7.77
2023-04-22T21:03:00.861Z,7.71
2023-04-22T21:05:29.692Z,7.65
2023-04-22T21:07:58.587Z,7.59
2023-04-22T21:10:28.542Z,7.52
2023-04-22T21:13:16.774Z,7.47
2023-04-22T21:16:06.499Z,7.65
2023-04-22T21:18:37.053Z,7.42
2023-04-22T21:21:07.347Z,7.36
2023-04-22T21:23:34.976Z,7.32
2023-04-22T21:26:11.462Z,7.27
2023-04-22T21:28:39.236Z,7.23
2023-04-22T21:31:12.040Z,7.20
2023-04-22T21:33:40.609Z,7.21
2023-04-22T21:36:12.313Z,7.17
2023-04-22T21:38:39.403Z,7.19
2023-04-22T21:41:06.496Z,7.12
2023-04-22T21:43:42.882Z,7.07
2023-04-22T21:46:09.963Z,7.00
2023-04-22T21:48:36.925Z,6.99
2023-04-22T21:51:04.237Z,6.97
2023-04-22T21:53:31.237Z,6.93
2023-04-22T21:55:58.262Z,6.84
2023-04-22T21:58:25.964Z,6.76
2023-04-22T22:00:53.144Z,6.77
2023-04-22T22:03:20.971Z,6.71
2023-04-22T22:05:48.127Z,6.68
2023-04-22T22:08:15.260Z,6.63
2023-04-22T22:10:43.075Z,6.59
2023-04-22T22:13:10.140Z,6.58
2023-04-22T22:15:37.180Z,6.48
2023-04-22T22:18:07.505Z,6.46
2023-04-22T22:20:34.471Z,6.46
2023-04-22T22:23:04.458Z,6.45
2023-04-22T22:25:31.551Z,6.45
2023-04-22T22:27:58.609Z,6.42
2023-04-22T22:30:31.255Z,6.42
2023-04-22T22:32:58.401Z,6.37
2023-04-22T22:35:26.836Z,6.31
2023-04-22T22:37:53.858Z,6.27
2023-04-22T22:40:20.842Z,6.29
2023-04-22T22:42:48.980Z,6.20
2023-04-22T22:45:16.159Z,6.15
2023-04-22T22:47:43.185Z,6.14
2023-04-22T22:50:11.676Z,6.10
2023-04-22T22:52:40.740Z,6.05
2023-04-22T22:55:08.303Z,6.03
2023-04-22T22:57:35.494Z,6.01
2023-04-22T23:00:06.382Z,5.98
2023-04-22T23:02:37.069Z,5.94
2023-04-22T23:05:04.600Z,5.89
2023-04-22T23:07:31.795Z,5.83
2023-04-22T23:10:05.388Z,5.82
2023-04-22T23:12:37.829Z,5.77
2023-04-22T23:15:06.005Z,5.78
2023-04-22T23:17:33.677Z,5.80
2023-04-22T23:20:07.413Z,5.80
2023-04-22T23:22:34.613Z,5.79
2023-04-22T23:25:02.060Z,5.77
2023-04-22T23:27:31.634Z,5.77
2023-04-22T23:29:59.310Z,5.75
2023-04-22T23:32:27.210Z,5.71
2023-04-22T23:34:54.717Z,5.69
2023-04-22T23:37:24.634Z,5.68
2023-04-22T23:39:51.554Z,5.63
2023-04-22T23:42:21.075Z,5.62
2023-04-22T23:44:48.077Z,5.58
2023-04-22T23:47:15.131Z,5.56
2023-04-22T23:49:42.105Z,5.55
2023-04-22T23:52:09.291Z,5.54
2023-04-22T23:54:37.349Z,5.49
2023-04-22T23:57:04.636Z,5.50
2023-04-22T23:59:32.000Z,5.50
